createdAt,value
2022-08-31T00:01:55.473Z,14.10
2022-08-31T00:07:00.103Z,14.00
2022-08-31T00:12:04.818Z,13.96
2022-08-31T00:17:12.242Z,13.90
2022-08-31T00:22:16.276Z,13.80
2022-08-31T00:27:20.307Z,13.74
2022-08-31T00:32:28.705Z,13.70
2022-08-31T00:37:33.083Z,13.62
2022-08-31T00:42:37.322Z,13.60
2022-08-31T00:47:41.676Z,13.50
2022-08-31T00:52:54.909Z,13.50
2022-08-31T00:58:05.523Z,13.50
2022-08-31T01:03:11.335Z,13.40
2022-08-31T01:08:15.504Z,13.40
2022-08-31T01:13:20.380Z,13.30
2022-08-31T01:18:25.790Z,13.30
2022-08-31T01:23:43.449Z,13.20
2022-08-31T01:28:48.419Z,13.14
2022-08-31T01:33:52.657Z,13.10
2022-08-31T01:38:56.999Z,13.00
2022-08-31T01:44:01.724Z,13.00
2022-08-31T01:49:09.887Z,12.90
2022-08-31T01:54:26.510Z,12.90
2022-08-31T01:59:32.410Z,12.80
2022-08-31T02:04:36.612Z,12.80
2022-08-31T02:09:40.864Z,12.72
2022-08-31T02:14:45.207Z,12.70
2022-08-31T02:19:49.639Z,12.70
2022-08-31T02:24:53.668Z,12.70
2022-08-31T02:29:58.215Z,12.60
2022-08-31T02:35:02.448Z,12.60
2022-08-31T02:40:12.316Z,12.60
2022-08-31T02:45:20.862Z,12.52
2022-08-31T02:50:25.143Z,12.50
2022-08-31T02:55:29.761Z,12.50
2022-08-31T03:00:35.158Z,12.40
2022-08-31T03:05:40.386Z,12.40
2022-08-31T03:10:44.709Z,12.30
2022-08-31T03:15:49.746Z,12.30
2022-08-31T03:20:54.113Z,12.30
2022-08-31T03:25:58.351Z,12.26
2022-08-31T03:31:02.771Z,12.20
2022-08-31T03:36:07.722Z,12.20
2022-08-31T03:41:24.869Z,12.20
2022-08-31T03:46:32.255Z,12.20
2022-08-31T03:51:36.538Z,12.20
2022-08-31T03:56:47.010Z,12.20
2022-08-31T04:01:51.897Z,12.20
2022-08-31T04:06:56.194Z,12.20
2022-08-31T04:12:00.443Z,12.20
2022-08-31T04:17:04.881Z,12.24
2022-08-31T04:22:10.054Z,12.30
2022-08-31T04:27:14.124Z,12.30
2022-08-31T04:32:18.313Z,12.40
2022-08-31T04:37:22.245Z,12.50
2022-08-31T04:42:27.222Z,12.60
2022-08-31T04:47:31.886Z,12.70
2022-08-31T04:52:35.983Z,12.98
2022-08-31T04:57:41.453Z,13.70
2022-08-31T05:02:48.892Z,14.34
2022-08-31T05:07:56.041Z,14.80
2022-08-31T05:13:00.102Z,15.20
2022-08-31T05:18:04.546Z,15.40
2022-08-31T05:23:09.098Z,15.60
2022-08-31T05:28:13.226Z,15.90
2022-08-31T05:33:17.747Z,16.00
2022-08-31T05:38:22.763Z,16.20
2022-08-31T05:43:28.031Z,16.50
2022-08-31T05:48:34.467Z,16.70
2022-08-31T05:53:39.357Z,16.90
2022-08-31T05:58:46.264Z,17.20
2022-08-31T06:03:51.221Z,17.36
2022-08-31T06:08:56.270Z,17.58
2022-08-31T06:14:03.504Z,17.60
2022-08-31T06:19:08.390Z,17.78
2022-08-31T06:24:13.463Z,17.90
2022-08-31T06:29:17.467Z,18.10
2022-08-31T06:34:25.175Z,18.42
2022-08-31T06:39:29.554Z,18.78
2022-08-31T06:44:33.923Z,19.02
2022-08-31T06:49:38.543Z,19.24
2022-08-31T06:54:42.687Z,19.48
2022-08-31T06:59:46.917Z,19.60
2022-08-31T07:04:51.035Z,19.70
2022-08-31T07:09:55.395Z,19.98
2022-08-31T07:15:00.243Z,20.28
2022-08-31T07:20:06.206Z,20.60
2022-08-31T07:25:15.075Z,20.90
2022-08-31T07:30:19.632Z,21.30
2022-08-31T07:35:23.851Z,21.60
2022-08-31T07:40:46.885Z,21.70
2022-08-31T07:45:51.313Z,21.98
2022-08-31T07:50:57.275Z,22.10
2022-08-31T07:56:02.103Z,22.20
2022-08-31T08:01:06.573Z,22.62
2022-08-31T08:06:16.664Z,23.10
2022-08-31T08:11:25.221Z,23.54
2022-08-31T08:16:29.534Z,23.80
2022-08-31T08:21:33.725Z,23.00
2022-08-31T08:26:48.985Z,22.60
2022-08-31T08:31:56.659Z,22.52
2022-08-31T08:37:01.568Z,23.20
2022-08-31T08:42:10.726Z,22.70
2022-08-31T08:47:23.988Z,22.20
2022-08-31T08:52:45.465Z,21.60
2022-08-31T08:57:52.913Z,21.10
2022-08-31T09:03:36.910Z,20.90
2022-08-31T09:09:21.524Z,21.08
2022-08-31T09:14:49.096Z,21.60
2022-08-31T09:20:01.019Z,21.90
2022-08-31T09:25:05.708Z,21.82
2022-08-31T09:30:11.021Z,21.40
2022-08-31T09:35:42.070Z,21.00
2022-08-31T09:40:50.292Z,20.60
2022-08-31T09:46:12.390Z,20.40
2022-08-31T09:51:39.418Z,20.20
2022-08-31T09:57:02.281Z,19.90
2022-08-31T10:02:13.461Z,19.60
2022-08-31T10:07:45.433Z,19.40
2022-08-31T10:13:01.345Z,19.20
2022-08-31T10:18:39.891Z,19.00
2022-08-31T10:23:59.346Z,18.90
2022-08-31T10:29:23.197Z,19.20
2022-08-31T10:34:55.833Z,19.50
2022-08-31T10:40:08.997Z,19.86
2022-08-31T10:45:24.619Z,20.18
2022-08-31T10:50:51.867Z,20.70
2022-08-31T10:56:24.144Z,20.90
2022-08-31T11:01:57.705Z,20.90
2022-08-31T11:07:16.792Z,21.08
2022-08-31T11:12:31.471Z,21.94
2022-08-31T11:18:06.315Z,22.82
2022-08-31T11:23:42.208Z,23.30
2022-08-31T11:29:10.761Z,23.34
2022-08-31T11:34:26.767Z,22.94
2022-08-31T11:39:45.122Z,22.50
2022-08-31T11:45:30.470Z,22.30
2022-08-31T11:50:40.850Z,22.30
2022-08-31T11:56:04.676Z,22.28
2022-08-31T12:01:11.352Z,22.00
2022-08-31T12:06:30.501Z,21.80
2022-08-31T12:12:07.016Z,21.50
2022-08-31T12:17:48.100Z,21.50
2022-08-31T12:23:38.583Z,21.70
2022-08-31T12:29:31.433Z,21.80
2022-08-31T12:34:43.298Z,21.70
2022-08-31T12:39:48.004Z,21.70
2022-08-31T12:44:54.258Z,21.90
2022-08-31T12:50:22.676Z,22.10
2022-08-31T12:55:38.569Z,22.44
2022-08-31T13:00:44.052Z,22.86
2022-08-31T13:06:14.171Z,23.20
2022-08-31T13:11:35.254Z,23.40
2022-08-31T13:16:51.257Z,23.80
2022-08-31T13:22:34.136Z,24.20
2022-08-31T13:27:39.985Z,24.60
2022-08-31T13:32:47.598Z,24.96
2022-08-31T13:38:06.090Z,25.30
2022-08-31T13:43:15.021Z,25.40
2022-08-31T13:48:34.929Z,25.54
2022-08-31T13:53:46.846Z,25.80
2022-08-31T13:58:51.112Z,25.50
2022-08-31T14:04:00.467Z,25.22
2022-08-31T14:09:25.463Z,25.30
2022-08-31T14:14:40.820Z,25.10
2022-08-31T14:19:46.554Z,25.00
2022-08-31T14:24:50.741Z,25.02
2022-08-31T14:29:55.702Z,25.00
2022-08-31T14:35:06.746Z,25.00
2022-08-31T14:40:17.614Z,25.00
2022-08-31T14:45:23.409Z,24.90
2022-08-31T14:50:32.190Z,25.10
2022-08-31T14:55:42.541Z,27.26
2022-08-31T15:00:53.765Z,30.56
2022-08-31T15:06:03.937Z,32.74
2022-08-31T15:11:11.973Z,34.32
2022-08-31T15:16:16.543Z,35.42
2022-08-31T15:21:21.754Z,36.20
2022-08-31T15:26:26.307Z,36.52
2022-08-31T15:31:30.586Z,36.70
2022-08-31T15:36:36.953Z,36.50
2022-08-31T15:41:42.862Z,36.18
2022-08-31T15:47:07.315Z,35.90
2022-08-31T15:52:13.139Z,35.60
2022-08-31T15:57:17.723Z,35.10
2022-08-31T16:02:22.051Z,34.80
2022-08-31T16:07:27.436Z,34.40
2022-08-31T16:12:31.680Z,33.86
2022-08-31T16:17:35.928Z,33.26
2022-08-31T16:22:42.473Z,32.54
2022-08-31T16:27:47.472Z,31.80
2022-08-31T16:32:52.479Z,31.10
2022-08-31T16:37:56.650Z,30.38
2022-08-31T16:43:01.107Z,29.80
2022-08-31T16:48:23.758Z,29.10
2022-08-31T16:53:29.057Z,28.30
2022-08-31T16:58:51.124Z,27.30
2022-08-31T17:04:41.225Z,26.40
2022-08-31T17:09:47.432Z,25.28
2022-08-31T17:14:53.843Z,23.74
2022-08-31T17:19:59.650Z,22.40
2022-08-31T17:25:09.508Z,21.40
2022-08-31T17:30:20.885Z,20.56
2022-08-31T17:35:27.282Z,19.90
2022-08-31T17:40:34.125Z,19.32
2022-08-31T17:45:40.039Z,18.90
2022-08-31T17:50:45.476Z,18.60
2022-08-31T17:56:00.759Z,18.26
2022-08-31T18:01:09.838Z,17.90
2022-08-31T18:06:18.866Z,17.60
2022-08-31T18:11:24.401Z,17.30
2022-08-31T18:16:29.152Z,17.08
2022-08-31T18:21:34.079Z,16.80
2022-08-31T18:26:46.113Z,16.50
2022-08-31T18:31:54.426Z,16.30
2022-08-31T18:37:00.243Z,16.10
2022-08-31T18:42:24.571Z,15.94
2022-08-31T18:47:33.337Z,15.76
2022-08-31T18:52:48.419Z,15.60
2022-08-31T18:57:53.752Z,15.56
2022-08-31T19:02:59.284Z,15.60
2022-08-31T19:08:06.107Z,15.62
2022-08-31T19:13:10.723Z,15.54
2022-08-31T19:18:16.846Z,15.36
2022-08-31T19:23:22.680Z,15.12
2022-08-31T19:28:27.491Z,14.90
2022-08-31T19:33:34.818Z,14.80
2022-08-31T19:38:42.013Z,14.80
2022-08-31T19:43:53.584Z,14.80
2022-08-31T19:49:01.008Z,14.70
2022-08-31T19:54:09.598Z,14.50
2022-08-31T19:59:21.783Z,14.30
2022-08-31T20:04:29.416Z,14.20
2022-08-31T20:09:35.427Z,14.20
2022-08-31T20:14:39.826Z,14.30
2022-08-31T20:19:43.951Z,14.30
2022-08-31T20:24:48.082Z,14.08
2022-08-31T20:29:52.430Z,13.90
2022-08-31T20:34:58.318Z,13.70
2022-08-31T20:40:10.667Z,13.84
2022-08-31T20:45:15.688Z,13.80
2022-08-31T20:50:20.026Z,13.68
2022-08-31T20:55:24.377Z,13.40
2022-08-31T21:00:28.725Z,13.30
2022-08-31T21:05:38.502Z,13.30
2022-08-31T21:10:43.612Z,13.20
2022-08-31T21:15:48.466Z,13.00
2022-08-31T21:20:56.017Z,12.80
2022-08-31T21:26:03.429Z,12.60
2022-08-31T21:31:16.492Z,12.70
2022-08-31T21:36:24.793Z,12.80
2022-08-31T21:41:30.038Z,12.70
2022-08-31T21:46:36.421Z,12.50
2022-08-31T21:51:55.354Z,12.40
2022-08-31T21:57:03.277Z,12.50
2022-08-31T22:02:11.731Z,12.36
2022-08-31T22:07:16.180Z,12.12
2022-08-31T22:12:20.432Z,11.90
2022-08-31T22:17:42.329Z,11.90
2022-08-31T22:22:49.881Z,12.00
2022-08-31T22:27:54.290Z,12.10
2022-08-31T22:32:59.287Z,12.10
2022-08-31T22:38:03.326Z,11.90
2022-08-31T22:43:07.679Z,11.80
2022-08-31T22:48:13.698Z,11.70
2022-08-31T22:53:18.087Z,11.70
2022-08-31T22:58:23.246Z,11.70
2022-08-31T23:03:28.097Z,11.70
2022-08-31T23:08:32.236Z,11.70
2022-08-31T23:13:55.195Z,11.70
2022-08-31T23:19:12.963Z,11.70
2022-08-31T23:24:24.806Z,11.70
2022-08-31T23:29:29.452Z,11.70
2022-08-31T23:34:37.021Z,11.80
2022-08-31T23:39:44.234Z,11.70
2022-08-31T23:44:52.102Z,11.60
2022-08-31T23:49:59.570Z,11.60
2022-08-31T23:55:08.049Z,11.70
